»·PEaware :: N20957 KCCB-KPRC

N20957 :: KCCB-KPRC

FLIGHT INFORMATION

Flight Status: Arrived
Operator: Privately registered:
United States
More flights under this callsign
Pilot: Charles P. (32095)
Aircraft: CESSNA 172 SKYHAWK
(C172)
More flights by this aircraft type
Origin: KCCB Cable
United States
Destination: KPRC Love
United States
More flights between these airports :: More routes between these airports
Route:
File this flight plan on PilotEdge
Remarks: N / A
Altitude:
(Current/Filed)
7,500ft
Speed:
(Current/Filed)
124kts
Departed: 22-Jul-21 12:06 PM
Arrived: 22-Jul-21 02:26 PM
Distance/Time
Traveled:
263nm/2:19
Distance/Time
To Go:
Arrived

Flight Plot

Page will automatically refresh every two minutes.

Flight plan parsing failed; only flown route is shown


Map Options




Map Legend


Flown Route
Filed Route
Departure Airport
Arrival Airport
Navaid (VOR, NDB)
Fix

Horizontal Profiles

Position Reports

Time Latitude Longitude Heading Altitude Ground
Speed
22-Jul-21 11:53 34.110762 -117.688623 159 1417ft 0kts
22-Jul-21 11:54 34.110762 -117.688623 159 1417ft 0kts
22-Jul-21 11:55 34.110762 -117.688623 159 1417ft 0kts
22-Jul-21 11:56 34.110762 -117.688623 159 1417ft 0kts
22-Jul-21 11:57 34.110762 -117.688623 159 1417ft 0kts
22-Jul-21 11:58 34.111395 -117.687166 69 1425ft 12kts
22-Jul-21 11:59 34.111417 -117.687098 69 1425ft 0kts
22-Jul-21 12:00 34.111417 -117.687098 69 1425ft 0kts
22-Jul-21 12:01 34.111420 -117.687086 71 1425ft 1kts
22-Jul-21 12:02 34.112481 -117.683736 69 1437ft 11kts
22-Jul-21 12:03 34.113415 -117.681818 248 1444ft 7kts
22-Jul-21 12:04 34.112954 -117.683207 248 1440ft 37kts
22-Jul-21 12:05 34.103340 -117.702765 166 1940ft 82kts
22-Jul-21 12:06 34.095581 -117.689820 80 2216ft 94kts
22-Jul-21 12:07 34.105002 -117.662980 354 2843ft 90kts
22-Jul-21 12:08 34.128186 -117.663215 353 3544ft 80kts
22-Jul-21 12:09 34.150205 -117.665394 0 4081ft 82kts
22-Jul-21 12:10 34.155835 -117.638358 90 4591ft 93kts
22-Jul-21 12:11 34.154645 -117.605703 92 5091ft 100kts
22-Jul-21 12:12 34.153273 -117.571592 92 5590ft 102kts
22-Jul-21 12:13 34.152383 -117.537238 92 6086ft 101kts
22-Jul-21 12:14 34.151660 -117.504147 92 6585ft 96kts
22-Jul-21 12:15 34.151025 -117.473125 92 7083ft 87kts
22-Jul-21 12:16 34.150552 -117.445032 92 7451ft 88kts
22-Jul-21 12:17 34.149784 -117.409340 92 7485ft 119kts
22-Jul-21 12:18 34.151027 -117.368277 79 7482ft 124kts
22-Jul-21 12:19 34.156174 -117.326925 81 7487ft 125kts
22-Jul-21 12:20 34.161310 -117.285292 82 7485ft 125kts
22-Jul-21 12:21 34.166382 -117.243626 81 7490ft 126kts
22-Jul-21 12:22 34.171489 -117.201608 81 7494ft 127kts
22-Jul-21 12:23 34.176543 -117.159806 81 7492ft 126kts
22-Jul-21 12:24 34.181598 -117.117726 81 7490ft 126kts
22-Jul-21 12:25 34.186456 -117.077599 81 7821ft 109kts
22-Jul-21 12:26 34.190492 -117.043936 81 8313ft 95kts
22-Jul-21 12:27 34.194551 -117.010156 81 8463ft 108kts
22-Jul-21 12:28 34.202210 -116.972798 27 8478ft 121kts
22-Jul-21 12:29 34.234980 -116.963018 10 8369ft 127kts
22-Jul-21 12:30 34.253878 -116.928162 81 7873ft 140kts
22-Jul-21 12:31 34.259488 -116.881847 84 7473ft 135kts
22-Jul-21 12:32 34.266203 -116.838921 82 7427ft 126kts
22-Jul-21 12:33 34.270271 -116.797526 100 7422ft 122kts
22-Jul-21 12:34 34.266803 -116.756377 88 7420ft 125kts
22-Jul-21 12:35 34.273387 -116.715301 82 7423ft 124kts
22-Jul-21 12:36 34.277671 -116.674019 114 7430ft 124kts
22-Jul-21 12:37 34.265687 -116.637408 117 7418ft 118kts
22-Jul-21 12:38 34.253225 -116.600438 117 7405ft 116kts
22-Jul-21 12:39 34.247100 -116.561740 90 7412ft 121kts
22-Jul-21 12:40 34.252023 -116.520813 88 7430ft 127kts
22-Jul-21 12:41 34.257010 -116.479041 84 7489ft 118kts
22-Jul-21 12:42 34.261292 -116.439990 83 7527ft 118kts
22-Jul-21 12:43 34.265814 -116.400580 84 7525ft 117kts
22-Jul-21 12:44 34.270290 -116.361541 84 7527ft 117kts
22-Jul-21 12:45 34.274735 -116.322574 84 7529ft 117kts
22-Jul-21 12:46 34.279167 -116.283550 84 7528ft 117kts
22-Jul-21 12:47 34.283584 -116.244468 84 7528ft 116kts
22-Jul-21 12:48 34.287991 -116.205529 84 7527ft 116kts
22-Jul-21 12:49 34.292373 -116.166584 84 7529ft 117kts
22-Jul-21 12:50 34.296772 -116.127434 84 7527ft 117kts
22-Jul-21 12:51 34.301134 -116.088414 84 7530ft 117kts
22-Jul-21 12:52 34.305539 -116.048994 84 7531ft 119kts
22-Jul-21 12:54 34.309949 -116.009363 84 7526ft 118kts
22-Jul-21 12:55 34.314336 -115.969960 84 7511ft 116kts
22-Jul-21 12:56 34.318690 -115.930496 84 7526ft 118kts
22-Jul-21 12:57 34.323030 -115.891160 84 7527ft 117kts
22-Jul-21 12:58 34.327357 -115.851716 84 7531ft 119kts
22-Jul-21 12:59 34.331678 -115.812388 84 7521ft 116kts
22-Jul-21 13:00 34.335815 -115.772465 88 7428ft 127kts
22-Jul-21 13:01 34.340557 -115.731104 90 7383ft 122kts
22-Jul-21 13:02 34.345043 -115.689685 89 7384ft 124kts
22-Jul-21 13:03 34.349539 -115.648060 89 7384ft 125kts
22-Jul-21 13:04 34.354089 -115.605965 89 7384ft 126kts
22-Jul-21 13:05 34.358629 -115.563734 89 7386ft 127kts
22-Jul-21 13:06 34.363175 -115.521391 89 7380ft 126kts
22-Jul-21 13:07 34.367673 -115.479230 89 7381ft 126kts
22-Jul-21 13:08 34.372184 -115.436897 88 7381ft 127kts
22-Jul-21 13:09 34.376679 -115.394527 88 7379ft 127kts
22-Jul-21 13:10 34.381160 -115.352089 88 7380ft 127kts
22-Jul-21 13:11 34.385648 -115.309496 88 7380ft 127kts
22-Jul-21 13:12 34.390140 -115.266790 88 7381ft 128kts
22-Jul-21 13:13 34.394607 -115.224014 88 7368ft 126kts
22-Jul-21 13:14 34.398980 -115.182513 88 7364ft 122kts
22-Jul-21 13:15 34.403377 -115.139700 88 7367ft 125kts
22-Jul-21 13:15 34.407055 -115.104542 88 7384ft 127kts
22-Jul-21 13:17 34.412208 -115.054625 88 7378ft 128kts
22-Jul-21 13:18 34.416607 -115.011828 88 7381ft 128kts
22-Jul-21 13:19 34.420990 -114.969038 87 7382ft 128kts
22-Jul-21 13:19 34.424680 -114.934792 80 7395ft 120kts
22-Jul-21 13:20 34.428518 -114.893275 88 7402ft 130kts
22-Jul-21 13:22 34.433831 -114.844535 82 7393ft 120kts
22-Jul-21 13:23 34.437791 -114.804185 81 7398ft 120kts
22-Jul-21 13:23 34.441126 -114.770782 81 7396ft 119kts
22-Jul-21 13:24 34.445156 -114.730669 81 7398ft 119kts
22-Jul-21 13:26 34.449892 -114.683264 82 7380ft 122kts
22-Jul-21 13:26 34.453316 -114.649098 82 7378ft 122kts
22-Jul-21 13:27 34.457413 -114.607974 82 7378ft 122kts
22-Jul-21 13:28 34.461473 -114.567028 82 7379ft 122kts
22-Jul-21 13:29 34.465516 -114.526115 82 7378ft 122kts
22-Jul-21 13:30 34.469551 -114.485095 82 7378ft 122kts
22-Jul-21 13:31 34.473572 -114.444168 82 7379ft 122kts
22-Jul-21 13:32 34.477580 -114.403188 82 7378ft 122kts
22-Jul-21 13:33 34.481580 -114.362144 82 7379ft 122kts
22-Jul-21 13:34 34.485578 -114.320970 82 7379ft 122kts
22-Jul-21 13:35 34.489551 -114.279945 82 7378ft 123kts
22-Jul-21 13:36 34.493514 -114.238822 82 7378ft 122kts
22-Jul-21 13:37 34.497470 -114.197659 82 7378ft 123kts
22-Jul-21 13:38 34.501387 -114.156716 82 7379ft 122kts
22-Jul-21 13:39 34.505306 -114.115676 82 7377ft 122kts
22-Jul-21 13:40 34.509204 -114.074644 82 7381ft 122kts
22-Jul-21 13:41 34.513103 -114.033497 82 7379ft 123kts
22-Jul-21 13:42 34.516983 -113.992367 82 7379ft 122kts
22-Jul-21 13:43 34.520848 -113.951262 82 7378ft 122kts
22-Jul-21 13:44 34.524712 -113.909984 82 7379ft 122kts
22-Jul-21 13:45 34.528554 -113.868843 82 7379ft 123kts
22-Jul-21 13:46 34.532363 -113.827895 82 7379ft 122kts
22-Jul-21 13:47 34.536185 -113.786555 83 7377ft 122kts
22-Jul-21 13:48 34.540043 -113.745486 85 7407ft 123kts
22-Jul-21 13:49 34.543917 -113.702893 85 7429ft 129kts
22-Jul-21 13:50 34.547895 -113.659301 85 7433ft 129kts
22-Jul-21 13:51 34.551863 -113.615768 85 7438ft 130kts
22-Jul-21 13:52 34.555835 -113.572023 85 7441ft 130kts
22-Jul-21 13:53 34.559827 -113.527950 85 7452ft 132kts
22-Jul-21 13:54 34.563779 -113.483744 84 7450ft 131kts
22-Jul-21 13:55 34.567785 -113.440163 85 7440ft 128kts
22-Jul-21 13:56 34.571668 -113.396594 85 7457ft 130kts
22-Jul-21 13:57 34.575526 -113.352826 85 7466ft 130kts
22-Jul-21 13:58 34.579398 -113.309027 84 7475ft 131kts
22-Jul-21 13:59 34.583307 -113.264749 84 7478ft 132kts
22-Jul-21 14:00 34.587199 -113.220380 84 7486ft 130kts
22-Jul-21 14:01 34.591092 -113.176097 84 7490ft 133kts
22-Jul-21 14:02 34.594951 -113.131768 84 7488ft 131kts
22-Jul-21 14:03 34.598778 -113.087735 84 7501ft 132kts
22-Jul-21 14:04 34.602609 -113.043234 83 7501ft 133kts
22-Jul-21 14:05 34.606455 -112.998837 84 7499ft 132kts
22-Jul-21 14:06 34.610188 -112.955147 84 7512ft 130kts
22-Jul-21 14:07 34.613960 -112.910942 84 7522ft 132kts
22-Jul-21 14:08 34.617764 -112.866096 84 7512ft 133kts
22-Jul-21 14:09 34.621539 -112.821634 84 7515ft 132kts
22-Jul-21 14:10 34.625099 -112.779995 82 7744ft 121kts
22-Jul-21 14:11 34.628544 -112.738304 82 7765ft 125kts
22-Jul-21 14:12 34.632094 -112.695731 82 7768ft 127kts
22-Jul-21 14:13 34.635731 -112.652011 82 7540ft 138kts
22-Jul-21 14:14 34.647973 -112.608870 47 7044ft 140kts
22-Jul-21 14:15 34.672787 -112.571769 62 6553ft 143kts
22-Jul-21 14:16 34.661239 -112.533322 125 6197ft 112kts
22-Jul-21 14:17 34.638381 -112.512082 199 6168ft 106kts
22-Jul-21 14:18 34.613692 -112.496995 143 6172ft 108kts
22-Jul-21 14:19 34.593559 -112.480861 54 6168ft 105kts
22-Jul-21 14:20 34.618103 -112.483355 14 6167ft 100kts
22-Jul-21 14:21 34.637914 -112.459857 58 6170ft 106kts
22-Jul-21 14:22 34.658206 -112.435283 27 6167ft 102kts
22-Jul-21 14:23 34.680480 -112.417285 33 6104ft 93kts
22-Jul-21 14:24 34.671378 -112.402056 212 5220ft 83kts
22-Jul-21 14:25 34.659041 -112.414682 220 4980ft 21kts
22-Jul-21 14:26 34.656881 -112.415598 130 4988ft 0kts
22-Jul-21 14:27 34.656881 -112.415598 130 4988ft 0kts
22-Jul-21 14:28 34.655867 -112.416260 223 4992ft 14kts
22-Jul-21 14:29 34.653319 -112.418972 222 5005ft 9kts
22-Jul-21 14:30 34.651213 -112.421200 220 5017ft 9kts
22-Jul-21 14:31 34.648997 -112.423566 224 5024ft 10kts
22-Jul-21 14:32 34.647477 -112.423104 234 5027ft 7kts
22-Jul-21 14:33 34.646856 -112.423185 139 5024ft 0kts
22-Jul-21 14:34 34.646856 -112.423185 139 5024ft 0kts

Navigation Log

Ident Type
Flight plan parsing failed, navigation log unavailable